Allensville, Ohio
Current Conditions -  °F | °C
As of 10:50 AM on Sunday 25 Jan 2015 (Local Time) from KUNI Reporting Station
Broken Clouds Broken Clouds  
Wind Chill: 36°   Ceiling: 5500
Heat Index: 36°   Visibility: 10mi
Dew Point: 32°   Wind: 0mph
Humidity: 85%   Direction: NA
Pressure: 29.8"   Gusts: NA
Location:  39.2719°N, 82.4596°W
Report Text: KUNI 251550Z AUTO 00000KT 10SM SCT049 BKN055 BKN075 02/00 A2980 RMK AO2 T00221001
Loading
Personal Weather Stations






























Interactive Weather Map New forecast layout! Learn more

10-Day Weather Forecast

Advertisements
Track Severe Weather on mobile